sensor_id;sensor_type;location;lat;lon;timestamp;P1;durP1;ratioP1;P2;durP2;ratioP2
38318;SDS011;24121;53.536;10.224;2022-10-16T09:23:08;2.65;;;1.75;;
38318;SDS011;24121;53.536;10.224;2022-10-16T09:25:37;3.95;;;1.90;;
38318;SDS011;24121;53.536;10.224;2022-10-16T09:28:04;6.65;;;1.98;;
38318;SDS011;24121;53.536;10.224;2022-10-16T09:30:29;2.28;;;1.40;;
38318;SDS011;24121;53.536;10.224;2022-10-16T09:32:55;9.48;;;2.13;;
38318;SDS011;24121;53.536;10.224;2022-10-16T09:35:32;6.65;;;2.08;;
38318;SDS011;24121;53.536;10.224;2022-10-16T09:38:00;5.40;;;1.50;;
38318;SDS011;24121;53.536;10.224;2022-10-16T09:40:26;2.03;;;1.27;;
38318;SDS011;24121;53.536;10.224;2022-10-16T09:42:56;5.15;;;1.50;;
38318;SDS011;24121;53.536;10.224;2022-10-16T09:45:26;6.03;;;1.88;;
38318;SDS011;24121;53.536;10.224;2022-10-16T09:47:51;6.78;;;1.83;;
38318;SDS011;24121;53.536;10.224;2022-10-16T09:50:22;2.97;;;1.35;;
38318;SDS011;24121;53.536;10.224;2022-10-16T09:53:02;3.63;;;1.40;;
38318;SDS011;24121;53.536;10.224;2022-10-16T09:55:30;3.75;;;1.50;;
38318;SDS011;24121;53.536;10.224;2022-10-16T09:57:55;2.08;;;1.13;;
38318;SDS011;24121;53.536;10.224;2022-10-16T10:00:21;3.03;;;1.20;;
38318;SDS011;24121;53.536;10.224;2022-10-16T10:02:47;2.55;;;1.30;;
38318;SDS011;24121;53.536;10.224;2022-10-16T10:05:20;2.88;;;1.30;;
38318;SDS011;24121;53.536;10.224;2022-10-16T10:07:52;2.42;;;1.30;;
38318;SDS011;24121;53.536;10.224;2022-10-16T10:12:52;6.00;;;1.83;;
38318;SDS011;24121;53.536;10.224;2022-10-16T10:15:18;4.72;;;1.60;;
38318;SDS011;24121;53.536;10.224;2022-10-16T10:22:57;6.93;;;1.40;;
38318;SDS011;24121;53.536;10.224;2022-10-16T10:25:41;3.08;;;1.27;;
38318;SDS011;24121;53.536;10.224;2022-10-16T10:28:32;4.73;;;1.30;;
38318;SDS011;24121;53.536;10.224;2022-10-16T10:31:06;5.78;;;1.40;;
38318;SDS011;24121;53.536;10.224;2022-10-16T10:39:19;2.50;;;1.17;;
38318;SDS011;24121;53.536;10.224;2022-10-16T10:50:19;2.08;;;0.73;;
38318;SDS011;24121;53.536;10.224;2022-10-16T10:58:07;8.25;;;1.20;;
38318;SDS011;24121;53.536;10.224;2022-10-16T11:08:29;4.45;;;1.10;;
38318;SDS011;24121;53.536;10.224;2022-10-16T11:11:03;4.55;;;1.33;;
38318;SDS011;24121;53.536;10.224;2022-10-16T11:13:36;3.83;;;1.10;;
38318;SDS011;24121;53.536;10.224;2022-10-16T11:16:18;4.60;;;1.60;;
38318;SDS011;24121;53.536;10.224;2022-10-16T11:19:01;4.93;;;1.17;;
38318;SDS011;24121;53.536;10.224;2022-10-16T11:21:30;3.65;;;1.08;;
38318;SDS011;24121;53.536;10.224;2022-10-16T11:24:04;2.95;;;0.90;;
38318;SDS011;24121;53.536;10.224;2022-10-16T11:26:35;2.70;;;1.02;;
38318;SDS011;24121;53.536;10.224;2022-10-16T11:29:04;4.35;;;1.20;;
38318;SDS011;24121;53.536;10.224;2022-10-16T11:31:47;1.92;;;0.90;;
38318;SDS011;24121;53.536;10.224;2022-10-16T11:34:22;3.28;;;0.85;;
38318;SDS011;24121;53.536;10.224;2022-10-16T11:36:53;5.32;;;1.52;;
38318;SDS011;24121;53.536;10.224;2022-10-16T11:39:30;5.13;;;1.30;;
38318;SDS011;24121;53.536;10.224;2022-10-16T11:49:58;3.25;;;0.93;;
38318;SDS011;24121;53.536;10.224;2022-10-16T11:55:14;4.03;;;0.90;;
38318;SDS011;24121;53.536;10.224;2022-10-16T11:57:44;3.90;;;1.00;;
38318;SDS011;24121;53.536;10.224;2022-10-16T12:08:34;3.33;;;1.00;;
38318;SDS011;24121;53.536;10.224;2022-10-16T12:11:35;4.28;;;0.88;;
38318;SDS011;24121;53.536;10.224;2022-10-16T12:13:51;5.55;;;1.20;;
38318;SDS011;24121;53.536;10.224;2022-10-16T12:18:45;2.55;;;0.70;;
38318;SDS011;24121;53.536;10.224;2022-10-16T12:21:11;4.45;;;1.23;;
38318;SDS011;24121;53.536;10.224;2022-10-16T12:26:12;4.32;;;1.20;;
38318;SDS011;24121;53.536;10.224;2022-10-16T12:28:37;2.60;;;1.10;;
38318;SDS011;24121;53.536;10.224;2022-10-16T12:31:05;3.78;;;0.90;;
38318;SDS011;24121;53.536;10.224;2022-10-16T12:33:33;3.07;;;1.17;;
38318;SDS011;24121;53.536;10.224;2022-10-16T12:36:00;3.65;;;0.95;;
38318;SDS011;24121;53.536;10.224;2022-10-16T12:38:37;4.43;;;1.30;;
38318;SDS011;24121;53.536;10.224;2022-10-16T12:41:03;3.40;;;1.20;;
38318;SDS011;24121;53.536;10.224;2022-10-16T12:48:34;2.65;;;0.98;;
38318;SDS011;24121;53.536;10.224;2022-10-16T12:51:10;3.90;;;1.05;;
38318;SDS011;24121;53.536;10.224;2022-10-16T12:53:37;5.57;;;0.88;;
38318;SDS011;24121;53.536;10.224;2022-10-16T12:56:04;3.08;;;1.00;;
38318;SDS011;24121;53.536;10.224;2022-10-16T12:58:41;2.08;;;0.90;;
